sensor_id;sensor_type;location;lat;lon;timestamp;temperature;humidity
11650;DHT22;5881;48.522;7.682;2023-11-19T00:00:30;8.50;99.90
11650;DHT22;5881;48.522;7.682;2023-11-19T00:02:55;8.50;99.90
11650;DHT22;5881;48.522;7.682;2023-11-19T00:05:21;8.60;99.90
11650;DHT22;5881;48.522;7.682;2023-11-19T00:07:46;8.60;99.90
11650;DHT22;5881;48.522;7.682;2023-11-19T00:10:14;8.60;99.90
11650;DHT22;5881;48.522;7.682;2023-11-19T00:12:45;8.70;99.90
11650;DHT22;5881;48.522;7.682;2023-11-19T00:15:10;8.70;99.90
11650;DHT22;5881;48.522;7.682;2023-11-19T00:17:42;8.70;99.90
11650;DHT22;5881;48.522;7.682;2023-11-19T00:20:13;8.70;99.90
11650;DHT22;5881;48.522;7.682;2023-11-19T00:22:39;8.80;99.90
11650;DHT22;5881;48.522;7.682;2023-11-19T00:25:05;8.80;99.90
11650;DHT22;5881;48.522;7.682;2023-11-19T00:27:31;8.90;99.90
11650;DHT22;5881;48.522;7.682;2023-11-19T00:29:57;8.90;99.90
11650;DHT22;5881;48.522;7.682;2023-11-19T00:32:23;8.90;99.90
11650;DHT22;5881;48.522;7.682;2023-11-19T00:34:49;8.90;99.90
11650;DHT22;5881;48.522;7.682;2023-11-19T00:37:15;9.00;99.90
11650;DHT22;5881;48.522;7.682;2023-11-19T00:39:41;9.10;99.90
11650;DHT22;5881;48.522;7.682;2023-11-19T00:42:07;9.10;99.90
11650;DHT22;5881;48.522;7.682;2023-11-19T00:44:33;9.10;99.90
11650;DHT22;5881;48.522;7.682;2023-11-19T00:46:58;9.10;99.90
11650;DHT22;5881;48.522;7.682;2023-11-19T00:49:25;9.10;99.90
11650;DHT22;5881;48.522;7.682;2023-11-19T00:51:51;9.20;99.90
11650;DHT22;5881;48.522;7.682;2023-11-19T00:54:17;9.20;99.90
11650;DHT22;5881;48.522;7.682;2023-11-19T00:56:42;9.20;99.90
11650;DHT22;5881;48.522;7.682;2023-11-19T00:59:08;9.20;99.90
11650;DHT22;5881;48.522;7.682;2023-11-19T01:01:34;9.30;99.90
11650;DHT22;5881;48.522;7.682;2023-11-19T01:03:59;9.30;99.90
11650;DHT22;5881;48.522;7.682;2023-11-19T01:06:32;9.40;99.90
11650;DHT22;5881;48.522;7.682;2023-11-19T01:08:58;9.40;99.90
11650;DHT22;5881;48.522;7.682;2023-11-19T01:11:24;9.40;99.90
11650;DHT22;5881;48.522;7.682;2023-11-19T01:13:50;9.50;99.90
11650;DHT22;5881;48.522;7.682;2023-11-19T01:16:17;9.40;99.90
11650;DHT22;5881;48.522;7.682;2023-11-19T01:18:43;9.50;99.90
11650;DHT22;5881;48.522;7.682;2023-11-19T01:21:08;9.50;99.90
11650;DHT22;5881;48.522;7.682;2023-11-19T01:23:34;9.50;99.90
11650;DHT22;5881;48.522;7.682;2023-11-19T01:26:00;9.50;99.90
11650;DHT22;5881;48.522;7.682;2023-11-19T01:28:26;9.50;99.90
11650;DHT22;5881;48.522;7.682;2023-11-19T01:30:52;9.50;99.90
11650;DHT22;5881;48.522;7.682;2023-11-19T01:33:17;9.60;99.90
11650;DHT22;5881;48.522;7.682;2023-11-19T01:35:43;9.60;99.90
11650;DHT22;5881;48.522;7.682;2023-11-19T01:38:09;9.60;99.90
11650;DHT22;5881;48.522;7.682;2023-11-19T01:40:35;9.70;99.90
11650;DHT22;5881;48.522;7.682;2023-11-19T01:43:03;9.50;99.90
11650;DHT22;5881;48.522;7.682;2023-11-19T01:45:30;9.60;99.90
11650;DHT22;5881;48.522;7.682;2023-11-19T01:48:01;9.50;99.90
11650;DHT22;5881;48.522;7.682;2023-11-19T01:50:30;9.60;99.90
11650;DHT22;5881;48.522;7.682;2023-11-19T01:52:57;9.60;99.90
11650;DHT22;5881;48.522;7.682;2023-11-19T01:55:24;9.70;99.90
11650;DHT22;5881;48.522;7.682;2023-11-19T01:57:49;9.70;99.90
11650;DHT22;5881;48.522;7.682;2023-11-19T02:00:16;9.70;99.90
11650;DHT22;5881;48.522;7.682;2023-11-19T02:02:45;9.70;99.90
11650;DHT22;5881;48.522;7.682;2023-11-19T02:05:12;9.70;99.90
11650;DHT22;5881;48.522;7.682;2023-11-19T02:07:38;9.70;99.90
11650;DHT22;5881;48.522;7.682;2023-11-19T02:10:04;9.70;99.90
11650;DHT22;5881;48.522;7.682;2023-11-19T02:12:34;9.70;99.90
11650;DHT22;5881;48.522;7.682;2023-11-19T02:15:01;9.70;99.90
11650;DHT22;5881;48.522;7.682;2023-11-19T02:17:28;9.70;99.90
11650;DHT22;5881;48.522;7.682;2023-11-19T02:19:57;9.70;99.90
11650;DHT22;5881;48.522;7.682;2023-11-19T02:22:22;9.70;99.90
11650;DHT22;5881;48.522;7.682;2023-11-19T02:24:51;9.70;99.90
11650;DHT22;5881;48.522;7.682;2023-11-19T02:27:49;9.70;99.90
11650;DHT22;5881;48.522;7.682;2023-11-19T02:30:12;9.80;99.90
11650;DHT22;5881;48.522;7.682;2023-11-19T02:32:43;9.80;99.90
11650;DHT22;5881;48.522;7.682;2023-11-19T02:35:09;9.80;99.90
11650;DHT22;5881;48.522;7.682;2023-11-19T02:37:35;9.90;99.90
11650;DHT22;5881;48.522;7.682;2023-11-19T02:40:00;9.90;99.90
11650;DHT22;5881;48.522;7.682;2023-11-19T02:42:28;9.90;99.90
11650;DHT22;5881;48.522;7.682;2023-11-19T02:44:54;9.90;99.90
11650;DHT22;5881;48.522;7.682;2023-11-19T02:47:19;9.90;99.90
11650;DHT22;5881;48.522;7.682;2023-11-19T02:49:47;9.90;99.90
11650;DHT22;5881;48.522;7.682;2023-11-19T02:52:13;9.90;99.90
11650;DHT22;5881;48.522;7.682;2023-11-19T02:54:40;10.10;99.90
11650;DHT22;5881;48.522;7.682;2023-11-19T02:57:06;9.90;99.90
11650;DHT22;5881;48.522;7.682;2023-11-19T02:59:37;10.00;99.90
11650;DHT22;5881;48.522;7.682;2023-11-19T03:02:07;10.00;99.90
11650;DHT22;5881;48.522;7.682;2023-11-19T03:04:37;10.00;99.90
11650;DHT22;5881;48.522;7.682;2023-11-19T03:07:05;10.00;99.90
11650;DHT22;5881;48.522;7.682;2023-11-19T03:09:32;10.00;99.90
11650;DHT22;5881;48.522;7.682;2023-11-19T03:11:59;9.90;99.90
11650;DHT22;5881;48.522;7.682;2023-11-19T03:14:25;9.90;99.90
11650;DHT22;5881;48.522;7.682;2023-11-19T03:16:51;10.00;99.90
11650;DHT22;5881;48.522;7.682;2023-11-19T03:19:17;10.00;99.90
11650;DHT22;5881;48.522;7.682;2023-11-19T03:21:43;10.00;99.90
11650;DHT22;5881;48.522;7.682;2023-11-19T03:24:10;10.00;99.90
11650;DHT22;5881;48.522;7.682;2023-11-19T03:26:35;10.00;99.90
11650;DHT22;5881;48.522;7.682;2023-11-19T03:29:02;10.20;99.90
11650;DHT22;5881;48.522;7.682;2023-11-19T03:31:28;10.10;99.90
11650;DHT22;5881;48.522;7.682;2023-11-19T03:33:54;10.20;99.90
11650;DHT22;5881;48.522;7.682;2023-11-19T03:36:19;10.30;99.90
11650;DHT22;5881;48.522;7.682;2023-11-19T03:38:45;10.30;99.90
11650;DHT22;5881;48.522;7.682;2023-11-19T03:41:12;10.20;99.90
11650;DHT22;5881;48.522;7.682;2023-11-19T03:43:39;10.20;99.90
11650;DHT22;5881;48.522;7.682;2023-11-19T03:46:05;10.30;99.90
11650;DHT22;5881;48.522;7.682;2023-11-19T03:48:40;10.40;99.90
11650;DHT22;5881;48.522;7.682;2023-11-19T03:51:06;10.40;99.90
11650;DHT22;5881;48.522;7.682;2023-11-19T03:53:31;10.40;99.90
11650;DHT22;5881;48.522;7.682;2023-11-19T03:55:57;10.40;99.90
11650;DHT22;5881;48.522;7.682;2023-11-19T03:58:22;10.40;99.90
11650;DHT22;5881;48.522;7.682;2023-11-19T04:00:48;10.40;99.90
11650;DHT22;5881;48.522;7.682;2023-11-19T04:03:13;10.40;99.90
11650;DHT22;5881;48.522;7.682;2023-11-19T04:05:39;10.40;99.90
11650;DHT22;5881;48.522;7.682;2023-11-19T04:08:04;10.40;99.90
11650;DHT22;5881;48.522;7.682;2023-11-19T04:10:30;10.40;99.90
11650;DHT22;5881;48.522;7.682;2023-11-19T04:12:56;10.50;99.90
11650;DHT22;5881;48.522;7.682;2023-11-19T04:15:21;10.60;99.90
11650;DHT22;5881;48.522;7.682;2023-11-19T04:17:47;10.50;99.90
11650;DHT22;5881;48.522;7.682;2023-11-19T04:20:14;10.60;99.90
11650;DHT22;5881;48.522;7.682;2023-11-19T04:22:39;10.60;99.90
11650;DHT22;5881;48.522;7.682;2023-11-19T04:25:06;10.60;99.90
11650;DHT22;5881;48.522;7.682;2023-11-19T04:27:32;10.50;99.90
11650;DHT22;5881;48.522;7.682;2023-11-19T04:29:57;10.60;99.90
11650;DHT22;5881;48.522;7.682;2023-11-19T04:32:23;10.60;99.90
11650;DHT22;5881;48.522;7.682;2023-11-19T04:34:50;10.60;99.90
11650;DHT22;5881;48.522;7.682;2023-11-19T04:37:16;10.60;99.90
11650;DHT22;5881;48.522;7.682;2023-11-19T04:39:44;10.60;99.90
11650;DHT22;5881;48.522;7.682;2023-11-19T04:42:10;10.70;99.90
11650;DHT22;5881;48.522;7.682;2023-11-19T04:44:36;10.60;99.90
11650;DHT22;5881;48.522;7.682;2023-11-19T04:47:01;10.70;99.90
11650;DHT22;5881;48.522;7.682;2023-11-19T04:49:27;10.60;99.90
11650;DHT22;5881;48.522;7.682;2023-11-19T04:51:52;10.70;99.90
11650;DHT22;5881;48.522;7.682;2023-11-19T04:54:19;10.60;99.90
11650;DHT22;5881;48.522;7.682;2023-11-19T04:56:47;10.60;99.90
11650;DHT22;5881;48.522;7.682;2023-11-19T04:59:14;10.70;99.90
11650;DHT22;5881;48.522;7.682;2023-11-19T05:01:40;10.60;99.90
11650;DHT22;5881;48.522;7.682;2023-11-19T05:04:07;10.70;99.90
11650;DHT22;5881;48.522;7.682;2023-11-19T05:06:32;10.70;99.90
11650;DHT22;5881;48.522;7.682;2023-11-19T05:08:59;10.70;99.90
11650;DHT22;5881;48.522;7.682;2023-11-19T05:11:35;10.70;99.90
11650;DHT22;5881;48.522;7.682;2023-11-19T05:14:02;10.70;99.90
11650;DHT22;5881;48.522;7.682;2023-11-19T05:16:29;10.70;99.90
11650;DHT22;5881;48.522;7.682;2023-11-19T05:18:55;10.80;99.90
11650;DHT22;5881;48.522;7.682;2023-11-19T05:21:20;10.80;99.90
11650;DHT22;5881;48.522;7.682;2023-11-19T05:23:46;10.80;99.90
11650;DHT22;5881;48.522;7.682;2023-11-19T05:26:22;10.90;99.90
11650;DHT22;5881;48.522;7.682;2023-11-19T05:28:48;10.90;99.90
11650;DHT22;5881;48.522;7.682;2023-11-19T05:31:15;10.90;99.90
11650;DHT22;5881;48.522;7.682;2023-11-19T05:33:41;10.90;99.90
11650;DHT22;5881;48.522;7.682;2023-11-19T05:36:06;11.00;99.90
11650;DHT22;5881;48.522;7.682;2023-11-19T05:38:36;11.00;99.90
11650;DHT22;5881;48.522;7.682;2023-11-19T05:41:02;11.00;99.90
11650;DHT22;5881;48.522;7.682;2023-11-19T05:43:28;11.00;99.90
11650;DHT22;5881;48.522;7.682;2023-11-19T05:45:53;11.10;99.90
11650;DHT22;5881;48.522;7.682;2023-11-19T05:48:19;11.10;99.90
11650;DHT22;5881;48.522;7.682;2023-11-19T05:50:45;11.10;99.90
11650;DHT22;5881;48.522;7.682;2023-11-19T05:53:11;11.10;99.90
11650;DHT22;5881;48.522;7.682;2023-11-19T05:55:39;11.10;99.90
11650;DHT22;5881;48.522;7.682;2023-11-19T05:58:27;11.10;99.90
11650;DHT22;5881;48.522;7.682;2023-11-19T06:00:55;11.10;99.90
11650;DHT22;5881;48.522;7.682;2023-11-19T06:03:21;11.10;99.90
11650;DHT22;5881;48.522;7.682;2023-11-19T06:05:48;11.10;99.90
11650;DHT22;5881;48.522;7.682;2023-11-19T06:08:14;11.10;99.90
11650;DHT22;5881;48.522;7.682;2023-11-19T06:10:43;11.10;99.90
11650;DHT22;5881;48.522;7.682;2023-11-19T06:13:14;11.10;99.90
11650;DHT22;5881;48.522;7.682;2023-11-19T06:15:41;11.10;99.90
11650;DHT22;5881;48.522;7.682;2023-11-19T06:18:07;11.20;99.90
11650;DHT22;5881;48.522;7.682;2023-11-19T06:20:33;11.30;99.90
11650;DHT22;5881;48.522;7.682;2023-11-19T06:23:00;11.30;99.90
11650;DHT22;5881;48.522;7.682;2023-11-19T06:25:26;11.20;99.90
11650;DHT22;5881;48.522;7.682;2023-11-19T06:27:52;11.20;99.90
11650;DHT22;5881;48.522;7.682;2023-11-19T06:30:18;11.20;99.90
11650;DHT22;5881;48.522;7.682;2023-11-19T06:32:44;11.20;99.90
11650;DHT22;5881;48.522;7.682;2023-11-19T06:35:10;11.20;99.90
11650;DHT22;5881;48.522;7.682;2023-11-19T06:37:38;11.20;99.90
11650;DHT22;5881;48.522;7.682;2023-11-19T06:40:04;11.20;99.90
11650;DHT22;5881;48.522;7.682;2023-11-19T06:42:31;11.30;99.90
11650;DHT22;5881;48.522;7.682;2023-11-19T06:44:56;11.30;99.90
11650;DHT22;5881;48.522;7.682;2023-11-19T06:47:26;11.30;99.90
11650;DHT22;5881;48.522;7.682;2023-11-19T06:49:52;11.30;99.90
11650;DHT22;5881;48.522;7.682;2023-11-19T06:52:18;11.40;99.90
11650;DHT22;5881;48.522;7.682;2023-11-19T06:54:44;11.40;99.90
11650;DHT22;5881;48.522;7.682;2023-11-19T06:57:11;11.50;99.90
11650;DHT22;5881;48.522;7.682;2023-11-19T06:59:37;11.60;99.90
11650;DHT22;5881;48.522;7.682;2023-11-19T07:02:03;11.60;99.90
11650;DHT22;5881;48.522;7.682;2023-11-19T07:04:30;11.70;99.90
11650;DHT22;5881;48.522;7.682;2023-11-19T07:06:55;11.70;99.90
11650;DHT22;5881;48.522;7.682;2023-11-19T07:09:21;11.80;99.90
11650;DHT22;5881;48.522;7.682;2023-11-19T07:11:48;11.80;99.90
11650;DHT22;5881;48.522;7.682;2023-11-19T07:14:15;11.80;99.90
11650;DHT22;5881;48.522;7.682;2023-11-19T07:16:42;11.80;99.90
11650;DHT22;5881;48.522;7.682;2023-11-19T07:19:08;11.80;99.90
11650;DHT22;5881;48.522;7.682;2023-11-19T07:21:34;11.90;99.90
11650;DHT22;5881;48.522;7.682;2023-11-19T07:23:59;11.80;99.90
11650;DHT22;5881;48.522;7.682;2023-11-19T07:26:25;11.80;99.90
11650;DHT22;5881;48.522;7.682;2023-11-19T07:28:52;11.80;99.90
11650;DHT22;5881;48.522;7.682;2023-11-19T07:31:18;11.80;99.90
11650;DHT22;5881;48.522;7.682;2023-11-19T07:33:45;11.80;99.90
11650;DHT22;5881;48.522;7.682;2023-11-19T07:36:12;11.80;99.90
11650;DHT22;5881;48.522;7.682;2023-11-19T07:38:37;11.90;99.90
11650;DHT22;5881;48.522;7.682;2023-11-19T07:41:06;11.80;99.90
11650;DHT22;5881;48.522;7.682;2023-11-19T07:43:34;11.80;99.90
11650;DHT22;5881;48.522;7.682;2023-11-19T07:45:59;11.90;99.90
11650;DHT22;5881;48.522;7.682;2023-11-19T07:48:26;11.90;99.90
11650;DHT22;5881;48.522;7.682;2023-11-19T07:50:52;12.00;99.90
11650;DHT22;5881;48.522;7.682;2023-11-19T07:53:19;12.00;99.90
11650;DHT22;5881;48.522;7.682;2023-11-19T07:55:45;12.20;99.90
11650;DHT22;5881;48.522;7.682;2023-11-19T07:58:11;12.20;99.90
11650;DHT22;5881;48.522;7.682;2023-11-19T08:00:37;12.20;99.90
11650;DHT22;5881;48.522;7.682;2023-11-19T08:03:03;12.20;99.90
11650;DHT22;5881;48.522;7.682;2023-11-19T08:05:29;12.20;99.90
11650;DHT22;5881;48.522;7.682;2023-11-19T08:07:55;12.20;99.90
11650;DHT22;5881;48.522;7.682;2023-11-19T08:10:20;12.30;99.90
11650;DHT22;5881;48.522;7.682;2023-11-19T08:12:46;12.30;99.90
11650;DHT22;5881;48.522;7.682;2023-11-19T08:15:12;12.30;99.90
11650;DHT22;5881;48.522;7.682;2023-11-19T08:17:38;12.40;99.90
11650;DHT22;5881;48.522;7.682;2023-11-19T08:20:04;12.50;99.90
11650;DHT22;5881;48.522;7.682;2023-11-19T08:22:30;12.50;99.90
11650;DHT22;5881;48.522;7.682;2023-11-19T08:24:56;12.60;99.90
11650;DHT22;5881;48.522;7.682;2023-11-19T08:27:22;12.60;99.90
11650;DHT22;5881;48.522;7.682;2023-11-19T08:29:53;12.60;99.90
11650;DHT22;5881;48.522;7.682;2023-11-19T08:32:21;12.60;99.90
11650;DHT22;5881;48.522;7.682;2023-11-19T08:34:46;12.70;99.90
11650;DHT22;5881;48.522;7.682;2023-11-19T08:37:12;12.60;99.90
11650;DHT22;5881;48.522;7.682;2023-11-19T08:39:38;12.70;99.90
11650;DHT22;5881;48.522;7.682;2023-11-19T08:42:04;12.80;99.90
11650;DHT22;5881;48.522;7.682;2023-11-19T08:44:32;12.90;99.90
11650;DHT22;5881;48.522;7.682;2023-11-19T08:46:58;12.90;99.90
11650;DHT22;5881;48.522;7.682;2023-11-19T08:49:23;12.90;99.90
11650;DHT22;5881;48.522;7.682;2023-11-19T08:51:49;12.90;99.90
11650;DHT22;5881;48.522;7.682;2023-11-19T08:54:14;13.00;99.90
11650;DHT22;5881;48.522;7.682;2023-11-19T08:56:40;12.90;99.90
11650;DHT22;5881;48.522;7.682;2023-11-19T08:59:06;13.00;99.90
11650;DHT22;5881;48.522;7.682;2023-11-19T09:01:32;13.00;99.90
11650;DHT22;5881;48.522;7.682;2023-11-19T09:03:57;13.10;99.90
11650;DHT22;5881;48.522;7.682;2023-11-19T09:06:23;13.10;99.90
11650;DHT22;5881;48.522;7.682;2023-11-19T09:08:49;13.20;99.90
11650;DHT22;5881;48.522;7.682;2023-11-19T09:11:14;13.30;99.90
11650;DHT22;5881;48.522;7.682;2023-11-19T09:13:40;13.30;99.90
11650;DHT22;5881;48.522;7.682;2023-11-19T09:16:06;13.50;99.90
11650;DHT22;5881;48.522;7.682;2023-11-19T09:18:31;13.50;99.90
11650;DHT22;5881;48.522;7.682;2023-11-19T09:20:58;13.50;99.90
11650;DHT22;5881;48.522;7.682;2023-11-19T09:23:23;13.40;99.90
11650;DHT22;5881;48.522;7.682;2023-11-19T09:25:54;13.40;99.90
11650;DHT22;5881;48.522;7.682;2023-11-19T09:28:20;13.50;99.90
11650;DHT22;5881;48.522;7.682;2023-11-19T09:30:46;13.60;99.90
11650;DHT22;5881;48.522;7.682;2023-11-19T09:33:11;13.80;99.90
11650;DHT22;5881;48.522;7.682;2023-11-19T09:35:37;13.90;99.90
11650;DHT22;5881;48.522;7.682;2023-11-19T09:38:02;14.10;99.90
11650;DHT22;5881;48.522;7.682;2023-11-19T09:40:30;14.00;99.90
11650;DHT22;5881;48.522;7.682;2023-11-19T09:42:57;13.90;99.90
11650;DHT22;5881;48.522;7.682;2023-11-19T09:45:26;13.90;99.90
11650;DHT22;5881;48.522;7.682;2023-11-19T09:47:53;13.90;99.90
11650;DHT22;5881;48.522;7.682;2023-11-19T09:50:20;13.60;99.90
11650;DHT22;5881;48.522;7.682;2023-11-19T09:52:47;13.70;99.90
11650;DHT22;5881;48.522;7.682;2023-11-19T09:55:12;13.90;99.90
11650;DHT22;5881;48.522;7.682;2023-11-19T09:57:40;13.80;99.90
11650;DHT22;5881;48.522;7.682;2023-11-19T10:00:07;13.80;99.90
11650;DHT22;5881;48.522;7.682;2023-11-19T10:02:35;13.80;99.90
11650;DHT22;5881;48.522;7.682;2023-11-19T10:05:06;13.80;99.90
11650;DHT22;5881;48.522;7.682;2023-11-19T10:07:33;13.80;99.90
11650;DHT22;5881;48.522;7.682;2023-11-19T10:10:03;13.70;99.90
11650;DHT22;5881;48.522;7.682;2023-11-19T10:12:29;13.70;99.90
11650;DHT22;5881;48.522;7.682;2023-11-19T10:14:59;13.70;99.90
11650;DHT22;5881;48.522;7.682;2023-11-19T10:17:43;13.60;99.90
11650;DHT22;5881;48.522;7.682;2023-11-19T10:20:09;13.50;99.90
11650;DHT22;5881;48.522;7.682;2023-11-19T10:22:37;13.50;99.90
11650;DHT22;5881;48.522;7.682;2023-11-19T10:25:04;13.40;99.90
11650;DHT22;5881;48.522;7.682;2023-11-19T10:27:29;13.30;99.90
11650;DHT22;5881;48.522;7.682;2023-11-19T10:29:59;13.40;99.90
11650;DHT22;5881;48.522;7.682;2023-11-19T10:32:25;13.60;99.90
11650;DHT22;5881;48.522;7.682;2023-11-19T10:34:50;13.70;99.90
11650;DHT22;5881;48.522;7.682;2023-11-19T10:37:29;14.20;99.90
11650;DHT22;5881;48.522;7.682;2023-11-19T10:39:58;16.00;99.90
11650;DHT22;5881;48.522;7.682;2023-11-19T10:42:23;16.40;99.90
11650;DHT22;5881;48.522;7.682;2023-11-19T10:44:49;16.80;99.90
11650;DHT22;5881;48.522;7.682;2023-11-19T10:47:15;16.90;99.90
11650;DHT22;5881;48.522;7.682;2023-11-19T10:49:44;17.50;99.90
11650;DHT22;5881;48.522;7.682;2023-11-19T10:52:12;17.00;99.90
11650;DHT22;5881;48.522;7.682;2023-11-19T10:54:43;17.40;99.90
11650;DHT22;5881;48.522;7.682;2023-11-19T10:57:09;16.50;99.90
11650;DHT22;5881;48.522;7.682;2023-11-19T10:59:38;15.90;99.90
11650;DHT22;5881;48.522;7.682;2023-11-19T11:02:09;15.70;99.90
11650;DHT22;5881;48.522;7.682;2023-11-19T11:04:40;15.50;99.90
11650;DHT22;5881;48.522;7.682;2023-11-19T11:07:07;15.40;99.90
11650;DHT22;5881;48.522;7.682;2023-11-19T11:09:33;15.30;99.90
11650;DHT22;5881;48.522;7.682;2023-11-19T11:11:59;15.10;99.90
11650;DHT22;5881;48.522;7.682;2023-11-19T11:14:27;15.20;99.90
11650;DHT22;5881;48.522;7.682;2023-11-19T11:16:53;15.00;99.90
11650;DHT22;5881;48.522;7.682;2023-11-19T11:19:19;15.20;99.90
11650;DHT22;5881;48.522;7.682;2023-11-19T11:21:49;15.30;99.90
11650;DHT22;5881;48.522;7.682;2023-11-19T11:24:51;15.80;99.90
11650;DHT22;5881;48.522;7.682;2023-11-19T11:32:43;15.60;99.90
11650;DHT22;5881;48.522;7.682;2023-11-19T11:38:14;15.40;99.90
11650;DHT22;5881;48.522;7.682;2023-11-19T11:40:41;15.40;99.90
11650;DHT22;5881;48.522;7.682;2023-11-19T11:49:03;16.70;99.90
11650;DHT22;5881;48.522;7.682;2023-11-19T11:57:26;16.20;99.90
11650;DHT22;5881;48.522;7.682;2023-11-19T12:00:02;16.00;99.90
11650;DHT22;5881;48.522;7.682;2023-11-19T12:02:30;15.80;99.90
11650;DHT22;5881;48.522;7.682;2023-11-19T12:04:56;15.60;99.90
11650;DHT22;5881;48.522;7.682;2023-11-19T12:07:23;15.60;99.90
11650;DHT22;5881;48.522;7.682;2023-11-19T12:09:56;15.70;99.90
11650;DHT22;5881;48.522;7.682;2023-11-19T12:12:32;16.20;99.90
11650;DHT22;5881;48.522;7.682;2023-11-19T12:20:02;15.80;99.90
11650;DHT22;5881;48.522;7.682;2023-11-19T12:22:30;15.80;99.90
11650;DHT22;5881;48.522;7.682;2023-11-19T12:24:56;15.90;99.90
11650;DHT22;5881;48.522;7.682;2023-11-19T12:27:22;15.80;99.90
11650;DHT22;5881;48.522;7.682;2023-11-19T12:29:48;15.90;99.90
11650;DHT22;5881;48.522;7.682;2023-11-19T12:32:14;15.80;99.90
11650;DHT22;5881;48.522;7.682;2023-11-19T12:34:40;15.70;99.90
11650;DHT22;5881;48.522;7.682;2023-11-19T12:37:05;15.40;99.90
11650;DHT22;5881;48.522;7.682;2023-11-19T12:39:31;15.30;99.90
11650;DHT22;5881;48.522;7.682;2023-11-19T12:41:57;15.30;99.90
11650;DHT22;5881;48.522;7.682;2023-11-19T12:44:25;15.30;99.90
11650;DHT22;5881;48.522;7.682;2023-11-19T12:47:03;15.60;99.90
11650;DHT22;5881;48.522;7.682;2023-11-19T12:49:29;15.50;99.90
11650;DHT22;5881;48.522;7.682;2023-11-19T12:51:55;15.40;99.90
11650;DHT22;5881;48.522;7.682;2023-11-19T12:54:34;15.60;99.90
11650;DHT22;5881;48.522;7.682;2023-11-19T12:57:00;15.70;99.90
11650;DHT22;5881;48.522;7.682;2023-11-19T12:59:26;15.70;99.90
11650;DHT22;5881;48.522;7.682;2023-11-19T13:01:59;15.60;99.90
11650;DHT22;5881;48.522;7.682;2023-11-19T13:04:29;15.60;99.90
11650;DHT22;5881;48.522;7.682;2023-11-19T13:06:57;15.70;99.90
11650;DHT22;5881;48.522;7.682;2023-11-19T13:09:24;15.80;99.90
11650;DHT22;5881;48.522;7.682;2023-11-19T13:11:50;15.80;99.90
11650;DHT22;5881;48.522;7.682;2023-11-19T13:14:16;15.90;99.90
11650;DHT22;5881;48.522;7.682;2023-11-19T13:16:42;15.70;99.90
11650;DHT22;5881;48.522;7.682;2023-11-19T13:19:08;15.70;99.90
11650;DHT22;5881;48.522;7.682;2023-11-19T13:21:36;15.70;99.90
11650;DHT22;5881;48.522;7.682;2023-11-19T13:24:03;15.60;99.90
11650;DHT22;5881;48.522;7.682;2023-11-19T13:26:29;15.50;99.90
11650;DHT22;5881;48.522;7.682;2023-11-19T13:28:54;15.40;99.90
11650;DHT22;5881;48.522;7.682;2023-11-19T13:31:20;15.30;99.90
11650;DHT22;5881;48.522;7.682;2023-11-19T13:33:45;15.30;99.90
11650;DHT22;5881;48.522;7.682;2023-11-19T13:36:11;15.30;99.90
11650;DHT22;5881;48.522;7.682;2023-11-19T13:38:37;15.30;99.90
11650;DHT22;5881;48.522;7.682;2023-11-19T13:41:03;15.30;99.90
11650;DHT22;5881;48.522;7.682;2023-11-19T13:43:30;15.30;99.90
11650;DHT22;5881;48.522;7.682;2023-11-19T13:45:56;15.10;99.90
11650;DHT22;5881;48.522;7.682;2023-11-19T13:48:22;15.20;99.90
11650;DHT22;5881;48.522;7.682;2023-11-19T13:50:48;15.20;99.90
11650;DHT22;5881;48.522;7.682;2023-11-19T13:53:13;15.20;99.90
11650;DHT22;5881;48.522;7.682;2023-11-19T13:55:39;15.20;99.90
11650;DHT22;5881;48.522;7.682;2023-11-19T13:58:04;15.20;99.90
11650;DHT22;5881;48.522;7.682;2023-11-19T14:00:30;15.10;99.90
11650;DHT22;5881;48.522;7.682;2023-11-19T14:02:56;15.00;99.90
11650;DHT22;5881;48.522;7.682;2023-11-19T14:05:21;15.00;99.90
11650;DHT22;5881;48.522;7.682;2023-11-19T14:07:48;15.00;99.90
11650;DHT22;5881;48.522;7.682;2023-11-19T14:10:14;14.90;99.90
11650;DHT22;5881;48.522;7.682;2023-11-19T14:12:41;14.80;99.90
11650;DHT22;5881;48.522;7.682;2023-11-19T14:15:08;14.90;99.90
11650;DHT22;5881;48.522;7.682;2023-11-19T14:17:35;14.90;99.90
11650;DHT22;5881;48.522;7.682;2023-11-19T14:20:02;14.90;99.90
11650;DHT22;5881;48.522;7.682;2023-11-19T14:22:30;14.80;99.90
11650;DHT22;5881;48.522;7.682;2023-11-19T14:24:55;14.70;99.90
11650;DHT22;5881;48.522;7.682;2023-11-19T14:27:21;14.70;99.90
11650;DHT22;5881;48.522;7.682;2023-11-19T14:29:47;14.60;99.90
11650;DHT22;5881;48.522;7.682;2023-11-19T14:32:13;14.50;99.90
11650;DHT22;5881;48.522;7.682;2023-11-19T14:34:39;14.60;99.90
11650;DHT22;5881;48.522;7.682;2023-11-19T14:37:04;14.70;99.90
11650;DHT22;5881;48.522;7.682;2023-11-19T14:39:30;14.60;99.90
11650;DHT22;5881;48.522;7.682;2023-11-19T14:42:00;14.60;99.90
11650;DHT22;5881;48.522;7.682;2023-11-19T14:44:29;14.60;99.90
11650;DHT22;5881;48.522;7.682;2023-11-19T14:46:55;14.60;99.90
11650;DHT22;5881;48.522;7.682;2023-11-19T14:49:21;14.50;99.90
11650;DHT22;5881;48.522;7.682;2023-11-19T14:51:47;14.40;99.90
11650;DHT22;5881;48.522;7.682;2023-11-19T14:54:13;14.30;99.90
11650;DHT22;5881;48.522;7.682;2023-11-19T14:56:40;14.30;99.90
11650;DHT22;5881;48.522;7.682;2023-11-19T14:59:05;14.20;99.90
11650;DHT22;5881;48.522;7.682;2023-11-19T15:01:31;14.20;99.90
11650;DHT22;5881;48.522;7.682;2023-11-19T15:03:57;14.10;99.90
11650;DHT22;5881;48.522;7.682;2023-11-19T15:06:25;14.00;99.90
11650;DHT22;5881;48.522;7.682;2023-11-19T15:08:53;14.10;99.90
11650;DHT22;5881;48.522;7.682;2023-11-19T15:11:18;14.10;99.90
11650;DHT22;5881;48.522;7.682;2023-11-19T15:13:44;14.20;99.90
11650;DHT22;5881;48.522;7.682;2023-11-19T15:16:09;14.30;99.90
11650;DHT22;5881;48.522;7.682;2023-11-19T15:18:40;14.40;99.90
11650;DHT22;5881;48.522;7.682;2023-11-19T15:21:05;14.30;99.90
11650;DHT22;5881;48.522;7.682;2023-11-19T15:23:31;14.40;99.90
11650;DHT22;5881;48.522;7.682;2023-11-19T15:25:57;14.20;99.90
11650;DHT22;5881;48.522;7.682;2023-11-19T15:28:22;14.20;99.90
11650;DHT22;5881;48.522;7.682;2023-11-19T15:30:48;14.10;99.90
11650;DHT22;5881;48.522;7.682;2023-11-19T15:33:14;14.00;99.90
11650;DHT22;5881;48.522;7.682;2023-11-19T15:35:40;14.00;99.90
11650;DHT22;5881;48.522;7.682;2023-11-19T15:38:06;14.00;99.90
11650;DHT22;5881;48.522;7.682;2023-11-19T15:40:35;13.90;99.90
11650;DHT22;5881;48.522;7.682;2023-11-19T15:43:01;14.00;99.90
11650;DHT22;5881;48.522;7.682;2023-11-19T15:45:27;13.90;99.90
11650;DHT22;5881;48.522;7.682;2023-11-19T15:47:53;13.90;99.90
11650;DHT22;5881;48.522;7.682;2023-11-19T15:50:18;13.90;99.90
11650;DHT22;5881;48.522;7.682;2023-11-19T15:52:44;13.90;99.90
11650;DHT22;5881;48.522;7.682;2023-11-19T15:55:10;13.90;99.90
11650;DHT22;5881;48.522;7.682;2023-11-19T15:57:39;14.10;99.90
11650;DHT22;5881;48.522;7.682;2023-11-19T16:00:06;14.10;99.90
11650;DHT22;5881;48.522;7.682;2023-11-19T16:02:36;14.10;99.90
11650;DHT22;5881;48.522;7.682;2023-11-19T16:05:01;14.00;99.90
11650;DHT22;5881;48.522;7.682;2023-11-19T16:07:27;13.80;99.90
11650;DHT22;5881;48.522;7.682;2023-11-19T16:09:55;13.90;99.90
11650;DHT22;5881;48.522;7.682;2023-11-19T16:12:21;13.80;99.90